Time;durP1;ratioP1;P1;durP2;ratioP2;P2;SDS_P1;SDS_P2;PMS_P1;PMS_P2;Temp;Humidity;BMP_temperature;BMP_pressure;BME280_temperature;BME280_humidity;BME280_pressure;Samples;Min_cycle;Max_cycle;Signal;HPM_P1;HPM_P2
2021/01/03 00:00:42;;;;;;;56.50;38.85;;;;;;;;;;5091308;28;20267;-90
2021/01/03 00:03:08;;;;;;;57.42;40.03;;;;;;;;;;5087192;28;20681;-89
2021/01/03 00:05:34;;;;;;;62.70;41.03;;;;;;;;;;5101980;28;20196;-89
2021/01/03 00:08:00;;;;;;;57.33;40.17;;;;;;;;;;5088862;28;20608;-88
2021/01/03 00:10:26;;;;;;;66.45;39.72;;;;;;;;;;5088367;28;20331;-89
2021/01/03 00:12:53;;;;;;;73.22;43.20;;;;;;;;;;5091002;28;20628;-90
2021/01/03 00:15:20;;;;;;;63.53;44.47;;;;;;;;;;5089536;28;20218;-89
2021/01/03 00:17:46;;;;;;;65.72;43.50;;;;;;;;;;5085517;28;20190;-89
2021/01/03 00:20:14;;;;;;;63.38;41.67;;;;;;;;;;5088747;28;20199;-81
2021/01/03 00:22:40;;;;;;;55.90;39.15;;;;;;;;;;5102767;28;20173;-90
2021/01/03 00:25:07;;;;;;;63.47;42.38;;;;;;;;;;5098130;28;20552;-89
2021/01/03 00:27:33;;;;;;;61.75;42.83;;;;;;;;;;5102473;28;20215;-89
2021/01/03 00:29:59;;;;;;;68.25;43.85;;;;;;;;;;5101989;28;20214;-90
2021/01/03 00:32:25;;;;;;;63.97;44.08;;;;;;;;;;5102663;28;20652;-89
2021/01/03 00:34:51;;;;;;;72.25;44.38;;;;;;;;;;5104407;28;20171;-89
2021/01/03 00:37:21;;;;;;;61.92;44.08;;;;;;;;;;5102462;28;20256;-87
2021/01/03 00:39:47;;;;;;;66.22;44.03;;;;;;;;;;5097385;28;20719;-89
2021/01/03 00:42:13;;;;;;;62.30;45.28;;;;;;;;;;5089918;28;20175;-89
2021/01/03 00:44:39;;;;;;;66.43;42.50;;;;;;;;;;5101653;28;20223;-90
2021/01/03 00:47:05;;;;;;;61.83;42.95;;;;;;;;;;5088175;28;20176;-89
2021/01/03 00:49:31;;;;;;;67.03;42.67;;;;;;;;;;5088920;28;20223;-90
2021/01/03 00:51:57;;;;;;;65.13;42.47;;;;;;;;;;5090843;28;20797;-89
2021/01/03 00:54:23;;;;;;;66.40;42.77;;;;;;;;;;5090999;28;20213;-89
2021/01/03 00:56:49;;;;;;;70.63;45.87;;;;;;;;;;5085319;28;20526;-89
2021/01/03 00:59:15;;;;;;;65.25;44.60;;;;;;;;;;5085618;28;20466;-89
2021/01/03 01:01:41;;;;;;;72.45;43.25;;;;;;;;;;5093919;28;20226;-89
2021/01/03 01:04:07;;;;;;;60.07;43.47;;;;;;;;;;5101886;28;20274;-89
2021/01/03 01:06:33;;;;;;;62.45;42.40;;;;;;;;;;5101115;28;20472;-90
2021/01/03 01:08:59;;;;;;;61.47;41.72;;;;;;;;;;5100588;28;20180;-89
2021/01/03 01:11:25;;;;;;;62.30;44.72;;;;;;;;;;5085389;28;20173;-89
2021/01/03 01:13:51;;;;;;;70.15;44.38;;;;;;;;;;5089380;28;20182;-90
2021/01/03 01:16:17;;;;;;;63.17;42.65;;;;;;;;;;5089221;28;20219;-90
2021/01/03 01:18:43;;;;;;;65.95;42.42;;;;;;;;;;5089599;28;20184;-85
2021/01/03 01:21:09;;;;;;;67.30;41.97;;;;;;;;;;5087750;28;20534;-82
2021/01/03 01:23:35;;;;;;;57.40;42.00;;;;;;;;;;5094053;28;20442;-89
2021/01/03 01:26:01;;;;;;;68.40;42.83;;;;;;;;;;5097832;28;20175;-89
2021/01/03 01:28:27;;;;;;;69.32;43.03;;;;;;;;;;5091346;28;20188;-90
2021/01/03 01:30:53;;;;;;;62.22;43.17;;;;;;;;;;5095335;28;20195;-89
2021/01/03 01:33:19;;;;;;;61.95;42.40;;;;;;;;;;5101578;28;20191;-89
2021/01/03 01:35:45;;;;;;;61.90;42.60;;;;;;;;;;5084892;28;20183;-89
2021/01/03 01:38:11;;;;;;;60.42;42.00;;;;;;;;;;5089483;28;20180;-89
2021/01/03 01:40:38;;;;;;;60.15;39.78;;;;;;;;;;5092344;28;20208;-90
2021/01/03 01:43:05;;;;;;;55.72;40.08;;;;;;;;;;5096699;28;20233;-90
2021/01/03 01:45:33;;;;;;;53.08;39.33;;;;;;;;;;5102078;28;20190;-90
2021/01/03 01:48:17;;;;;;;63.20;41.88;;;;;;;;;;5090704;28;20188;-90
2021/01/03 01:50:44;;;;;;;66.50;41.83;;;;;;;;;;5105519;28;20180;-89
2021/01/03 01:53:36;;;;;;;60.30;40.90;;;;;;;;;;5103526;28;20484;-89
2021/01/03 01:56:08;;;;;;;56.13;40.85;;;;;;;;;;5040441;28;20190;-90
2021/01/03 01:58:44;;;;;;;58.20;41.65;;;;;;;;;;5027707;28;20228;-90
2021/01/03 02:01:13;;;;;;;60.53;43.50;;;;;;;;;;5026996;28;20276;-89
2021/01/03 02:03:43;;;;;;;62.13;42.88;;;;;;;;;;5027744;28;20186;-89
2021/01/03 02:06:18;;;;;;;61.00;41.90;;;;;;;;;;5028144;28;20200;-89
2021/01/03 02:08:50;;;;;;;56.25;42.70;;;;;;;;;;5030175;28;20182;-89
2021/01/03 02:11:20;;;;;;;66.90;44.20;;;;;;;;;;5008771;28;20656;-88
2021/01/03 02:13:49;;;;;;;71.13;45.53;;;;;;;;;;5044705;28;20198;-89
2021/01/03 02:16:20;;;;;;;58.13;44.47;;;;;;;;;;5030542;28;20194;-88
2021/01/03 02:18:47;;;;;;;64.15;44.13;;;;;;;;;;5021144;28;20221;-89
2021/01/03 02:21:27;;;;;;;60.65;43.33;;;;;;;;;;5041479;28;20217;-90
2021/01/03 02:23:57;;;;;;;62.17;45.10;;;;;;;;;;5027488;28;20181;-90
2021/01/03 02:26:25;;;;;;;64.03;44.25;;;;;;;;;;5031826;28;20185;-89
2021/01/03 02:28:51;;;;;;;63.03;44.75;;;;;;;;;;5028724;28;20176;-89
2021/01/03 02:31:20;;;;;;;59.40;44.97;;;;;;;;;;5027528;28;20237;-89
2021/01/03 02:33:50;;;;;;;67.63;46.40;;;;;;;;;;5099297;28;20192;-90
2021/01/03 02:36:26;;;;;;;70.93;47.50;;;;;;;;;;5092303;28;20188;-89
2021/01/03 02:39:01;;;;;;;72.65;48.95;;;;;;;;;;5088834;28;20188;-90
2021/01/03 02:41:27;;;;;;;71.65;49.03;;;;;;;;;;5088190;28;20211;-88
2021/01/03 02:43:53;;;;;;;63.90;47.83;;;;;;;;;;5099793;28;20292;-90
2021/01/03 02:46:19;;;;;;;68.65;46.20;;;;;;;;;;5094270;28;20307;-90
2021/01/03 02:48:45;;;;;;;65.47;46.67;;;;;;;;;;5091085;28;20184;-90
2021/01/03 02:51:11;;;;;;;60.30;46.80;;;;;;;;;;5091329;28;20196;-89
2021/01/03 02:53:37;;;;;;;65.70;48.30;;;;;;;;;;5087979;28;20203;-88
2021/01/03 02:56:04;;;;;;;62.40;45.43;;;;;;;;;;5092054;28;20232;-90
2021/01/03 02:58:30;;;;;;;70.32;45.63;;;;;;;;;;5096383;28;20452;-90
2021/01/03 03:00:56;;;;;;;64.83;46.13;;;;;;;;;;5096951;28;20224;-89
2021/01/03 03:03:22;;;;;;;65.72;45.95;;;;;;;;;;5101769;28;20474;-90
2021/01/03 03:05:48;;;;;;;67.68;44.05;;;;;;;;;;5087343;28;20181;-89
2021/01/03 03:08:13;;;;;;;71.38;45.47;;;;;;;;;;5089633;28;20239;-89
2021/01/03 03:10:39;;;;;;;69.82;40.85;;;;;;;;;;5092171;28;20180;-90
2021/01/03 03:13:05;;;;;;;66.93;41.53;;;;;;;;;;5090573;28;20574;-89
2021/01/03 03:15:34;;;;;;;73.07;43.75;;;;;;;;;;5091390;28;20520;-90
2021/01/03 03:18:01;;;;;;;67.82;42.95;;;;;;;;;;5089408;28;20180;-89
2021/01/03 03:20:28;;;;;;;74.22;39.88;;;;;;;;;;5086600;28;20200;-88
2021/01/03 03:22:54;;;;;;;67.10;39.95;;;;;;;;;;5090789;28;20180;-89
2021/01/03 03:25:20;;;;;;;63.97;39.05;;;;;;;;;;5093377;28;20188;-89
2021/01/03 03:27:46;;;;;;;66.32;39.38;;;;;;;;;;5097289;28;20189;-90
2021/01/03 03:30:14;;;;;;;62.40;40.10;;;;;;;;;;5088019;28;20181;-89
2021/01/03 03:32:40;;;;;;;61.95;37.85;;;;;;;;;;5086956;28;20755;-90
2021/01/03 03:35:07;;;;;;;67.82;38.92;;;;;;;;;;5100469;28;20172;-89
2021/01/03 03:37:33;;;;;;;71.57;39.67;;;;;;;;;;5100017;28;20195;-89
2021/01/03 03:39:59;;;;;;;60.78;38.13;;;;;;;;;;5097418;28;20192;-88
2021/01/03 03:42:25;;;;;;;59.83;37.92;;;;;;;;;;5089809;28;20195;-88
2021/01/03 03:44:51;;;;;;;63.72;37.78;;;;;;;;;;5087116;28;20176;-89
2021/01/03 03:47:17;;;;;;;59.75;38.35;;;;;;;;;;5087726;28;20200;-89
2021/01/03 03:49:43;;;;;;;70.60;39.03;;;;;;;;;;5086437;28;20184;-89
2021/01/03 03:52:09;;;;;;;71.20;38.30;;;;;;;;;;5089279;28;20225;-90
2021/01/03 03:54:35;;;;;;;65.68;39.65;;;;;;;;;;5089949;28;20199;-90
2021/01/03 03:57:03;;;;;;;65.65;38.03;;;;;;;;;;5089926;28;20189;-89
2021/01/03 03:59:29;;;;;;;63.28;36.88;;;;;;;;;;5086203;28;20224;-89
2021/01/03 04:01:56;;;;;;;55.30;36.25;;;;;;;;;;5089188;28;20324;-90
2021/01/03 04:04:22;;;;;;;58.22;36.65;;;;;;;;;;5090015;28;20210;-89
2021/01/03 04:06:48;;;;;;;67.55;39.35;;;;;;;;;;5090516;28;20184;-89
2021/01/03 04:09:15;;;;;;;62.78;36.63;;;;;;;;;;5092181;28;20660;-89
2021/01/03 04:11:42;;;;;;;62.50;39.50;;;;;;;;;;5109801;28;20210;-89
2021/01/03 04:14:09;;;;;;;63.38;37.80;;;;;;;;;;5100186;28;20257;-89
2021/01/03 04:16:35;;;;;;;64.10;40.72;;;;;;;;;;5092183;28;20217;-89
2021/01/03 04:19:01;;;;;;;72.00;38.78;;;;;;;;;;5091621;28;20192;-89
2021/01/03 04:21:27;;;;;;;59.53;38.72;;;;;;;;;;5091229;28;20217;-89
2021/01/03 04:23:53;;;;;;;64.65;36.92;;;;;;;;;;5086571;28;20191;-89
2021/01/03 04:26:19;;;;;;;70.97;38.90;;;;;;;;;;5085924;28;20168;-87
2021/01/03 04:28:46;;;;;;;66.78;40.00;;;;;;;;;;5088872;28;20427;-88
2021/01/03 04:31:12;;;;;;;64.82;39.33;;;;;;;;;;5091363;28;20216;-89
2021/01/03 04:33:41;;;;;;;75.07;37.22;;;;;;;;;;5091301;28;20184;-89
2021/01/03 04:36:07;;;;;;;62.30;37.95;;;;;;;;;;5088780;28;20237;-89
2021/01/03 04:38:33;;;;;;;61.80;38.70;;;;;;;;;;5084851;28;20220;-89
2021/01/03 04:40:59;;;;;;;59.97;35.67;;;;;;;;;;5088527;28;20204;-89
2021/01/03 04:43:25;;;;;;;65.50;36.57;;;;;;;;;;5090889;28;20212;-89
2021/01/03 04:45:57;;;;;;;55.20;35.88;;;;;;;;;;5091080;28;20936;-89
2021/01/03 04:48:28;;;;;;;54.50;33.00;;;;;;;;;;5098190;28;20183;-89
2021/01/03 04:50:59;;;;;;;59.65;35.60;;;;;;;;;;5087093;28;20204;-89
2021/01/03 04:53:25;;;;;;;52.00;32.60;;;;;;;;;;5086208;28;20172;-89
2021/01/03 04:56:01;;;;;;;51.73;34.50;;;;;;;;;;5089284;28;20179;-89
2021/01/03 04:58:30;;;;;;;60.25;37.95;;;;;;;;;;5097741;28;20445;-89
2021/01/03 05:01:14;;;;;;;61.25;37.63;;;;;;;;;;5096699;28;20228;-89
2021/01/03 05:03:56;;;;;;;61.47;35.25;;;;;;;;;;5091213;28;20188;-86
2021/01/03 05:06:24;;;;;;;55.88;31.73;;;;;;;;;;5090969;28;20194;-89
2021/01/03 05:09:01;;;;;;;42.13;26.30;;;;;;;;;;5085680;28;20258;-89
2021/01/03 05:11:33;;;;;;;33.17;24.08;;;;;;;;;;5084791;28;20184;-82
2021/01/03 05:14:31;;;;;;;35.42;21.20;;;;;;;;;;5089157;28;20177;-89
2021/01/03 05:16:58;;;;;;;31.80;20.35;;;;;;;;;;5080775;28;20192;-89
2021/01/03 05:19:24;;;;;;;31.38;20.58;;;;;;;;;;5061181;28;20212;-89
2021/01/03 05:21:51;;;;;;;26.58;16.55;;;;;;;;;;5057554;28;20307;-88
2021/01/03 05:24:17;;;;;;;23.35;15.40;;;;;;;;;;5064125;28;20184;-88
2021/01/03 05:26:44;;;;;;;26.17;15.68;;;;;;;;;;5063160;28;20197;-86
2021/01/03 05:29:12;;;;;;;22.35;16.05;;;;;;;;;;5081441;28;20184;-88
2021/01/03 05:31:38;;;;;;;26.80;16.10;;;;;;;;;;5078359;28;20185;-88
2021/01/03 05:34:06;;;;;;;26.95;16.10;;;;;;;;;;5061227;28;20197;-89
2021/01/03 05:36:33;;;;;;;22.80;16.13;;;;;;;;;;5055672;28;20188;-87
2021/01/03 05:39:03;;;;;;;23.02;14.98;;;;;;;;;;5064012;28;20208;-89
2021/01/03 05:41:38;;;;;;;21.08;14.50;;;;;;;;;;5061982;28;20215;-88
2021/01/03 05:44:10;;;;;;;20.98;14.55;;;;;;;;;;5049624;28;20263;-89
2021/01/03 05:46:42;;;;;;;20.55;13.50;;;;;;;;;;5078295;28;20200;-89
2021/01/03 05:49:11;;;;;;;19.83;12.95;;;;;;;;;;5060941;28;20565;-89
2021/01/03 05:51:40;;;;;;;22.58;12.90;;;;;;;;;;5072476;28;20188;-89
2021/01/03 05:54:10;;;;;;;16.90;12.35;;;;;;;;;;5101660;28;20188;-89
2021/01/03 05:56:37;;;;;;;17.17;12.80;;;;;;;;;;5085099;28;20184;-89
2021/01/03 05:59:03;;;;;;;17.48;13.20;;;;;;;;;;5088410;28;20255;-89
2021/01/03 06:01:31;;;;;;;21.20;13.43;;;;;;;;;;5090392;28;20204;-88
2021/01/03 06:04:01;;;;;;;19.98;13.23;;;;;;;;;;5090329;28;20190;-88
2021/01/03 06:06:45;;;;;;;20.48;13.43;;;;;;;;;;5088465;28;20262;-89
2021/01/03 06:09:12;;;;;;;26.42;13.93;;;;;;;;;;5088278;28;20184;-88
2021/01/03 06:11:38;;;;;;;19.98;12.73;;;;;;;;;;5084242;28;20185;-88
2021/01/03 06:14:04;;;;;;;21.70;14.48;;;;;;;;;;5088602;28;20562;-88
2021/01/03 06:16:31;;;;;;;19.98;13.35;;;;;;;;;;5097572;28;20183;-89
2021/01/03 06:19:01;;;;;;;21.33;14.18;;;;;;;;;;5091246;28;20195;-89
2021/01/03 06:21:39;;;;;;;18.52;12.85;;;;;;;;;;5088920;28;20291;-89
2021/01/03 06:24:09;;;;;;;20.10;13.50;;;;;;;;;;5102014;28;20556;-89
2021/01/03 06:26:37;;;;;;;21.80;14.20;;;;;;;;;;5086796;28;20657;-88
2021/01/03 06:29:09;;;;;;;24.77;15.10;;;;;;;;;;5100638;28;20176;-89
2021/01/03 06:31:44;;;;;;;22.02;14.23;;;;;;;;;;5092176;28;20188;-86
2021/01/03 06:34:13;;;;;;;21.67;14.15;;;;;;;;;;5093917;28;20214;-83
2021/01/03 06:36:58;;;;;;;25.30;16.10;;;;;;;;;;5092142;28;20358;-89
2021/01/03 06:39:33;;;;;;;23.95;13.60;;;;;;;;;;5091561;28;20252;-89
2021/01/03 06:42:05;;;;;;;22.75;13.93;;;;;;;;;;5089063;28;20717;-89
2021/01/03 06:44:52;;;;;;;22.60;14.40;;;;;;;;;;5087300;28;20210;-88
2021/01/03 06:47:37;;;;;;;22.58;12.80;;;;;;;;;;5102229;28;20170;-89
2021/01/03 06:50:16;;;;;;;21.55;14.52;;;;;;;;;;5086151;28;20239;-88
2021/01/03 06:53:00;;;;;;;20.52;12.20;;;;;;;;;;5092260;28;20185;-88
2021/01/03 06:55:54;;;;;;;22.85;14.43;;;;;;;;;;5093471;28;20196;-89
2021/01/03 06:58:38;;;;;;;19.35;12.43;;;;;;;;;;5096274;28;20188;-88
2021/01/03 07:01:14;;;;;;;16.67;12.02;;;;;;;;;;5096266;28;20219;-88
2021/01/03 07:03:40;;;;;;;22.20;11.85;;;;;;;;;;5092698;28;20191;-89
2021/01/03 07:06:07;;;;;;;16.87;12.30;;;;;;;;;;5094872;28;20195;-89
2021/01/03 07:08:39;;;;;;;14.05;9.43;;;;;;;;;;5094391;28;20447;-88
2021/01/03 07:11:25;;;;;;;14.73;10.88;;;;;;;;;;5093406;28;20176;-89
2021/01/03 07:13:51;;;;;;;19.95;11.05;;;;;;;;;;5091874;28;20189;-87
2021/01/03 07:16:36;;;;;;;12.60;9.88;;;;;;;;;;5092996;28;20192;-89
2021/01/03 07:19:05;;;;;;;16.27;10.60;;;;;;;;;;5089998;28;20184;-89
2021/01/03 07:21:36;;;;;;;13.73;10.20;;;;;;;;;;5094351;28;20233;-89
2021/01/03 07:24:20;;;;;;;13.75;9.95;;;;;;;;;;5102950;28;20184;-89
2021/01/03 07:27:06;;;;;;;15.35;10.20;;;;;;;;;;5088478;28;20211;-88
2021/01/03 07:29:32;;;;;;;15.65;10.45;;;;;;;;;;5100793;28;20249;-89
2021/01/03 07:32:02;;;;;;;13.57;10.48;;;;;;;;;;5103760;28;20180;-88
2021/01/03 07:34:30;;;;;;;12.98;9.55;;;;;;;;;;5098088;28;20188;-89
2021/01/03 07:37:14;;;;;;;14.35;10.02;;;;;;;;;;5098397;28;20180;-89
2021/01/03 07:40:00;;;;;;;14.98;9.80;;;;;;;;;;5094589;28;20203;-87
2021/01/03 07:42:27;;;;;;;14.85;10.10;;;;;;;;;;5096280;28;20188;-89
2021/01/03 07:44:54;;;;;;;13.43;9.98;;;;;;;;;;5095700;28;20230;-89
2021/01/03 07:47:35;;;;;;;15.65;9.85;;;;;;;;;;5094280;28;20179;-87
2021/01/03 07:50:20;;;;;;;16.52;10.52;;;;;;;;;;5103249;28;20171;-88
2021/01/03 07:52:46;;;;;;;15.55;11.15;;;;;;;;;;5100455;28;20182;-88
2021/01/03 07:55:14;;;;;;;13.73;10.50;;;;;;;;;;5097156;28;20220;-88
2021/01/03 07:57:40;;;;;;;16.95;11.05;;;;;;;;;;5100601;28;20184;-86
2021/01/03 08:00:07;;;;;;;15.50;11.38;;;;;;;;;;5100308;28;20228;-88
2021/01/03 08:02:34;;;;;;;12.60;9.90;;;;;;;;;;5101124;28;20199;-89
2021/01/03 08:05:00;;;;;;;16.83;11.65;;;;;;;;;;5090518;28;20176;-87
2021/01/03 08:07:26;;;;;;;21.20;11.20;;;;;;;;;;5091411;28;20263;-88
2021/01/03 08:09:52;;;;;;;19.13;13.30;;;;;;;;;;5092161;28;20184;-87
2021/01/03 08:12:24;;;;;;;16.80;11.85;;;;;;;;;;5099623;28;20232;-85
2021/01/03 08:14:57;;;;;;;15.60;11.20;;;;;;;;;;5102679;28;20211;-86
2021/01/03 08:17:26;;;;;;;16.40;12.23;;;;;;;;;;5101464;28;20625;-87
2021/01/03 08:19:52;;;;;;;16.55;11.52;;;;;;;;;;5101339;28;20172;-86
2021/01/03 08:22:26;;;;;;;17.98;15.15;;;;;;;;;;5100050;28;20199;-86
2021/01/03 08:24:53;;;;;;;21.80;14.70;;;;;;;;;;5100458;28;20661;-86
2021/01/03 08:27:21;;;;;;;24.25;14.88;;;;;;;;;;5101604;28;20183;-87
2021/01/03 08:29:49;;;;;;;21.10;14.45;;;;;;;;;;5099534;28;20191;-86
2021/01/03 08:32:17;;;;;;;21.65;17.85;;;;;;;;;;5101501;28;20172;-85
2021/01/03 08:34:43;;;;;;;23.98;15.52;;;;;;;;;;5100226;28;20180;-86
2021/01/03 08:37:17;;;;;;;19.92;12.93;;;;;;;;;;5100542;28;20192;-85
2021/01/03 08:39:43;;;;;;;30.52;21.13;;;;;;;;;;5100994;28;20210;-86
2021/01/03 08:42:13;;;;;;;28.50;21.00;;;;;;;;;;5101338;28;20558;-86
2021/01/03 08:44:47;;;;;;;23.05;15.82;;;;;;;;;;5099870;28;20587;-86
2021/01/03 08:47:17;;;;;;;20.50;14.32;;;;;;;;;;5111131;28;20174;-82
2021/01/03 08:49:43;;;;;;;18.10;12.98;;;;;;;;;;5102068;28;20171;-85
2021/01/03 08:52:15;;;;;;;20.08;13.05;;;;;;;;;;5100919;28;20198;-85
2021/01/03 08:54:41;;;;;;;19.13;14.40;;;;;;;;;;5096016;28;20245;-83
2021/01/03 08:57:07;;;;;;;19.70;14.45;;;;;;;;;;5089418;28;20558;-85
2021/01/03 08:59:33;;;;;;;23.27;14.30;;;;;;;;;;5083804;28;20239;-85
2021/01/03 09:01:59;;;;;;;20.00;12.68;;;;;;;;;;5096901;28;20271;-85
2021/01/03 09:04:25;;;;;;;19.08;12.93;;;;;;;;;;5090935;28;20184;-86
2021/01/03 09:06:53;;;;;;;16.63;11.98;;;;;;;;;;5087283;28;20184;-85
2021/01/03 09:09:21;;;;;;;19.50;14.23;;;;;;;;;;5097672;28;20192;-85
2021/01/03 09:11:51;;;;;;;18.38;13.00;;;;;;;;;;5095147;28;20190;-85
2021/01/03 09:14:24;;;;;;;16.92;13.10;;;;;;;;;;5085073;28;20271;-84
2021/01/03 09:17:08;;;;;;;18.73;12.35;;;;;;;;;;5102121;28;20180;-85
2021/01/03 09:19:43;;;;;;;16.38;11.55;;;;;;;;;;5099337;28;20187;-85
2021/01/03 09:22:11;;;;;;;21.27;14.50;;;;;;;;;;5093024;28;20211;-85
2021/01/03 09:24:37;;;;;;;19.45;13.45;;;;;;;;;;5093512;28;20191;-86
2021/01/03 09:27:06;;;;;;;17.98;11.65;;;;;;;;;;5100986;28;20791;-85
2021/01/03 09:29:34;;;;;;;15.23;11.70;;;;;;;;;;5092418;28;20180;-85
2021/01/03 09:32:00;;;;;;;16.27;11.25;;;;;;;;;;5091609;28;20199;-86
2021/01/03 09:34:29;;;;;;;19.13;12.25;;;;;;;;;;5089168;28;20792;-87
2021/01/03 09:37:01;;;;;;;18.83;12.93;;;;;;;;;;5088345;28;20184;-85
2021/01/03 09:39:46;;;;;;;21.95;14.40;;;;;;;;;;5089489;28;20195;-86
2021/01/03 09:42:32;;;;;;;18.65;12.80;;;;;;;;;;5089037;28;20207;-86
2021/01/03 09:45:07;;;;;;;19.33;13.55;;;;;;;;;;5085175;28;20181;-85
2021/01/03 09:47:37;;;;;;;18.58;13.35;;;;;;;;;;5083801;28;20736;-86
2021/01/03 09:50:12;;;;;;;19.65;14.07;;;;;;;;;;5088409;28;20627;-86
2021/01/03 09:52:44;;;;;;;20.08;14.55;;;;;;;;;;5087522;28;20183;-85
2021/01/03 09:55:12;;;;;;;22.65;14.30;;;;;;;;;;5091619;28;20176;-85
2021/01/03 09:57:41;;;;;;;19.20;12.93;;;;;;;;;;5087919;28;20244;-85
2021/01/03 10:00:10;;;;;;;25.73;15.43;;;;;;;;;;5090281;28;20226;-86
2021/01/03 10:02:36;;;;;;;21.33;13.80;;;;;;;;;;5088683;28;20189;-86
2021/01/03 10:05:04;;;;;;;23.63;15.02;;;;;;;;;;5100509;28;20191;-84
2021/01/03 10:07:31;;;;;;;21.83;16.67;;;;;;;;;;5101231;28;20247;-85
2021/01/03 10:09:57;;;;;;;26.63;15.88;;;;;;;;;;5099013;28;20181;-86
2021/01/03 10:12:32;;;;;;;28.40;15.30;;;;;;;;;;5093052;28;20184;-85
2021/01/03 10:15:13;;;;;;;26.88;17.30;;;;;;;;;;5089528;28;20192;-85
2021/01/03 10:17:42;;;;;;;27.95;16.92;;;;;;;;;;5086114;28;20184;-85
2021/01/03 10:20:32;;;;;;;23.23;17.42;;;;;;;;;;5101399;28;20171;-85
2021/01/03 10:22:59;;;;;;;21.23;15.23;;;;;;;;;;5107151;28;20180;-85
2021/01/03 10:25:25;;;;;;;30.20;15.75;;;;;;;;;;5090043;28;20188;-85
2021/01/03 10:28:04;;;;;;;24.17;15.30;;;;;;;;;;5091932;28;20195;-85
2021/01/03 10:30:30;;;;;;;32.38;16.98;;;;;;;;;;5124425;27;20199;-85
2021/01/03 10:32:56;;;;;;;26.08;14.23;;;;;;;;;;5088921;28;20184;-85
2021/01/03 10:35:22;;;;;;;27.65;16.45;;;;;;;;;;5088401;28;20176;-85
2021/01/03 10:37:48;;;;;;;29.40;16.38;;;;;;;;;;5091623;28;20230;-86
2021/01/03 10:40:15;;;;;;;29.85;16.27;;;;;;;;;;5093281;28;20193;-85
2021/01/03 10:42:41;;;;;;;26.38;16.20;;;;;;;;;;5092327;28;20181;-84
2021/01/03 10:45:07;;;;;;;34.05;17.73;;;;;;;;;;5091545;28;20275;-82
2021/01/03 10:47:33;;;;;;;31.33;18.23;;;;;;;;;;5087147;28;21099;-85
2021/01/03 10:49:59;;;;;;;24.80;16.17;;;;;;;;;;5099295;28;20183;-85
2021/01/03 10:52:25;;;;;;;23.93;15.60;;;;;;;;;;5094576;28;20430;-85
2021/01/03 10:54:51;;;;;;;28.13;16.83;;;;;;;;;;5092436;28;20970;-85
2021/01/03 10:57:17;;;;;;;26.43;16.90;;;;;;;;;;5091781;28;20437;-85
2021/01/03 10:59:43;;;;;;;27.07;16.33;;;;;;;;;;5085739;28;20469;-86
2021/01/03 11:02:09;;;;;;;29.13;15.70;;;;;;;;;;5090552;28;20463;-86
2021/01/03 11:04:34;;;;;;;28.50;15.80;;;;;;;;;;5091900;28;20446;-85
2021/01/03 11:07:01;;;;;;;29.90;17.25;;;;;;;;;;5092968;28;20454;-86
2021/01/03 11:09:29;;;;;;;24.67;17.05;;;;;;;;;;5090675;28;20176;-85
2021/01/03 11:12:02;;;;;;;28.95;16.90;;;;;;;;;;5086363;28;20196;-86
2021/01/03 11:14:28;;;;;;;26.95;17.83;;;;;;;;;;5087888;28;20184;-85
2021/01/03 11:16:54;;;;;;;31.10;17.90;;;;;;;;;;5090649;28;20172;-85
2021/01/03 11:19:20;;;;;;;31.20;20.90;;;;;;;;;;5090841;28;20203;-85
2021/01/03 11:21:46;;;;;;;29.75;19.38;;;;;;;;;;5092018;28;20231;-86
2021/01/03 11:24:13;;;;;;;29.10;16.55;;;;;;;;;;5103574;28;20586;-85
2021/01/03 11:26:41;;;;;;;31.80;18.60;;;;;;;;;;5084841;28;20184;-85
2021/01/03 11:29:08;;;;;;;30.45;16.98;;;;;;;;;;5099863;28;20176;-85
2021/01/03 11:31:38;;;;;;;29.98;16.67;;;;;;;;;;5092360;28;20517;-85
2021/01/03 11:34:05;;;;;;;31.48;16.95;;;;;;;;;;5089673;28;20184;-86
2021/01/03 11:36:31;;;;;;;25.52;15.90;;;;;;;;;;5097243;28;20198;-85
2021/01/03 11:39:06;;;;;;;27.35;15.63;;;;;;;;;;5087366;28;20271;-83
2021/01/03 11:41:32;;;;;;;27.30;16.65;;;;;;;;;;5099663;28;20214;-85
2021/01/03 11:43:58;;;;;;;25.17;14.95;;;;;;;;;;5098435;28;20171;-84
2021/01/03 11:46:24;;;;;;;35.10;16.55;;;;;;;;;;5093153;28;20668;-85
2021/01/03 11:48:50;;;;;;;32.30;15.82;;;;;;;;;;5095283;28;20215;-85
2021/01/03 11:51:17;;;;;;;27.45;17.25;;;;;;;;;;5091410;28;20187;-85
2021/01/03 11:53:43;;;;;;;28.58;17.35;;;;;;;;;;5084717;28;20194;-85
2021/01/03 11:56:09;;;;;;;23.33;16.33;;;;;;;;;;5099542;28;20229;-85
2021/01/03 11:58:35;;;;;;;27.73;16.83;;;;;;;;;;5089826;28;20192;-85
2021/01/03 12:01:01;;;;;;;26.88;15.50;;;;;;;;;;5093201;28;20291;-85
2021/01/03 12:03:27;;;;;;;25.20;16.02;;;;;;;;;;5101810;28;20175;-85
2021/01/03 12:05:54;;;;;;;27.05;16.83;;;;;;;;;;5085914;28;20275;-85
2021/01/03 12:08:20;;;;;;;25.15;15.98;;;;;;;;;;5086719;28;20269;-86
2021/01/03 12:10:46;;;;;;;26.43;16.57;;;;;;;;;;5089909;28;20192;-86
2021/01/03 12:13:12;;;;;;;25.58;16.30;;;;;;;;;;5096767;28;20450;-85
2021/01/03 12:15:38;;;;;;;21.50;14.60;;;;;;;;;;5097921;28;20184;-86
2021/01/03 12:18:04;;;;;;;22.55;14.77;;;;;;;;;;5100562;28;20517;-85
2021/01/03 12:20:30;;;;;;;21.05;14.07;;;;;;;;;;5087107;28;20196;-84
2021/01/03 12:22:56;;;;;;;21.63;14.93;;;;;;;;;;5096569;28;20172;-85
2021/01/03 12:25:21;;;;;;;27.03;17.37;;;;;;;;;;5092613;28;20282;-84
2021/01/03 12:27:48;;;;;;;24.08;15.60;;;;;;;;;;5090836;28;20798;-85
2021/01/03 12:30:15;;;;;;;23.17;15.52;;;;;;;;;;5090754;28;20504;-86
2021/01/03 12:32:41;;;;;;;27.02;17.17;;;;;;;;;;5083877;28;20245;-86
2021/01/03 12:35:08;;;;;;;22.98;14.82;;;;;;;;;;5098355;28;20260;-86
2021/01/03 12:37:36;;;;;;;32.03;17.33;;;;;;;;;;5093686;28;20261;-85
2021/01/03 12:40:03;;;;;;;27.30;16.17;;;;;;;;;;5095601;28;20242;-85
2021/01/03 12:42:29;;;;;;;19.92;13.95;;;;;;;;;;5099917;28;20210;-85
2021/01/03 12:44:55;;;;;;;22.65;15.93;;;;;;;;;;5086150;28;20176;-85
2021/01/03 12:47:21;;;;;;;27.90;17.60;;;;;;;;;;5084866;28;20230;-84
2021/01/03 12:49:47;;;;;;;24.20;17.00;;;;;;;;;;5088726;28;20430;-86
2021/01/03 12:52:13;;;;;;;24.52;16.90;;;;;;;;;;5090783;28;20441;-86
2021/01/03 12:54:39;;;;;;;25.20;16.33;;;;;;;;;;5088948;28;20181;-86
2021/01/03 12:57:05;;;;;;;24.15;16.50;;;;;;;;;;5087008;28;20195;-86
2021/01/03 12:59:31;;;;;;;27.85;16.50;;;;;;;;;;5084661;28;20212;-85
2021/01/03 13:01:57;;;;;;;21.80;16.67;;;;;;;;;;5096871;28;20237;-84
2021/01/03 13:04:23;;;;;;;21.55;14.52;;;;;;;;;;5092937;28;20176;-87
2021/01/03 13:06:49;;;;;;;23.10;15.02;;;;;;;;;;5090208;28;20259;-85
2021/01/03 13:09:18;;;;;;;19.98;14.60;;;;;;;;;;5091683;28;20641;-86
2021/01/03 13:11:44;;;;;;;22.60;15.25;;;;;;;;;;5100285;28;20187;-86
2021/01/03 13:14:11;;;;;;;26.02;16.33;;;;;;;;;;5098769;28;20159;-86
2021/01/03 13:16:38;;;;;;;21.92;15.98;;;;;;;;;;5095153;28;20709;-89
2021/01/03 13:19:04;;;;;;;22.52;15.40;;;;;;;;;;5101557;28;20198;-85
2021/01/03 13:21:30;;;;;;;25.17;16.02;;;;;;;;;;5097011;28;20196;-85
2021/01/03 13:23:56;;;;;;;22.58;15.40;;;;;;;;;;5100042;28;20245;-86
2021/01/03 13:26:22;;;;;;;24.98;14.77;;;;;;;;;;5085610;28;20222;-85
2021/01/03 13:28:49;;;;;;;22.15;14.55;;;;;;;;;;5088910;28;20270;-85
2021/01/03 13:31:19;;;;;;;25.00;16.70;;;;;;;;;;5088831;28;20184;-85
2021/01/03 13:33:44;;;;;;;24.67;18.00;;;;;;;;;;5090124;28;20188;-85
2021/01/03 13:36:11;;;;;;;25.03;16.10;;;;;;;;;;5091852;28;20183;-85
2021/01/03 13:38:37;;;;;;;21.25;15.35;;;;;;;;;;5098015;28;20446;-85
2021/01/03 13:41:03;;;;;;;23.90;15.75;;;;;;;;;;5124922;27;20272;-86
2021/01/03 13:43:29;;;;;;;19.83;14.60;;;;;;;;;;5098508;28;20180;-87
2021/01/03 13:45:55;;;;;;;22.00;14.38;;;;;;;;;;5102619;28;20187;-87
2021/01/03 13:48:21;;;;;;;23.58;14.02;;;;;;;;;;5102693;28;20184;-87
2021/01/03 13:50:47;;;;;;;19.98;14.10;;;;;;;;;;5104598;28;20191;-85
2021/01/03 13:53:15;;;;;;;20.73;13.77;;;;;;;;;;5097935;28;20176;-87
2021/01/03 13:55:41;;;;;;;19.48;13.82;;;;;;;;;;5092760;28;20180;-86
2021/01/03 13:58:07;;;;;;;23.20;13.77;;;;;;;;;;5096273;28;20279;-86
2021/01/03 14:00:33;;;;;;;19.58;12.43;;;;;;;;;;5101547;28;20269;-87
2021/01/03 14:02:59;;;;;;;18.85;12.85;;;;;;;;;;5103846;28;20633;-86
2021/01/03 14:05:25;;;;;;;17.13;11.30;;;;;;;;;;5104568;28;20186;-85
2021/01/03 14:07:51;;;;;;;15.40;10.77;;;;;;;;;;5090792;28;20197;-86
2021/01/03 14:10:19;;;;;;;16.40;11.37;;;;;;;;;;5101126;28;20204;-85
2021/01/03 14:12:45;;;;;;;19.50;12.23;;;;;;;;;;5100645;28;20434;-86
2021/01/03 14:15:11;;;;;;;20.70;12.05;;;;;;;;;;5103395;28;20180;-86
2021/01/03 14:17:37;;;;;;;16.83;11.23;;;;;;;;;;5086187;28;20219;-85
2021/01/03 14:20:04;;;;;;;18.52;12.63;;;;;;;;;;5100295;28;20198;-86
2021/01/03 14:22:32;;;;;;;15.73;10.73;;;;;;;;;;5100619;28;20214;-85
2021/01/03 14:24:59;;;;;;;14.77;11.20;;;;;;;;;;5099204;28;20181;-87